sensor_id;sensor_type;location;lat;lon;timestamp;pressure;altitude;pressure_sealevel;temperature;humidity
12215;BME280;6170;42.206;24.142;2023-04-08T00:02:16;99072.34;;;7.78;70.37
12215;BME280;6170;42.206;24.142;2023-04-08T00:04:43;99021.94;;;7.38;71.10
12215;BME280;6170;42.206;24.142;2023-04-08T00:07:10;99022.59;;;7.62;70.25
12215;BME280;6170;42.206;24.142;2023-04-08T00:09:37;99018.69;;;7.50;70.14
12215;BME280;6170;42.206;24.142;2023-04-08T00:12:06;99062.38;;;7.72;70.09
12215;BME280;6170;42.206;24.142;2023-04-08T00:14:34;99034.25;;;7.61;68.92
12215;BME280;6170;42.206;24.142;2023-04-08T00:17:02;99041.41;;;7.69;68.92
12215;BME280;6170;42.206;24.142;2023-04-08T00:19:30;99038.38;;;7.18;70.18
12215;BME280;6170;42.206;24.142;2023-04-08T00:21:58;99042.16;;;7.24;69.61
12215;BME280;6170;42.206;24.142;2023-04-08T00:24:25;99042.53;;;7.21;69.43
12215;BME280;6170;42.206;24.142;2023-04-08T00:26:52;99033.91;;;7.11;69.35
12215;BME280;6170;42.206;24.142;2023-04-08T00:29:21;99038.88;;;7.14;69.25
12215;BME280;6170;42.206;24.142;2023-04-08T00:31:48;99036.69;;;7.17;69.67
12215;BME280;6170;42.206;24.142;2023-04-08T00:34:15;99069.03;;;7.45;69.17
12215;BME280;6170;42.206;24.142;2023-04-08T00:36:43;99035.31;;;7.52;68.22
12215;BME280;6170;42.206;24.142;2023-04-08T00:39:11;99064.44;;;7.85;68.18
12215;BME280;6170;42.206;24.142;2023-04-08T00:41:39;99028.69;;;7.26;68.91
12215;BME280;6170;42.206;24.142;2023-04-08T00:44:06;99063.13;;;7.27;69.87
12215;BME280;6170;42.206;24.142;2023-04-08T00:46:36;99076.06;;;7.07;69.93
12215;BME280;6170;42.206;24.142;2023-04-08T00:49:04;99037.72;;;7.16;68.72
12215;BME280;6170;42.206;24.142;2023-04-08T00:51:33;99068.13;;;7.30;68.62
12215;BME280;6170;42.206;24.142;2023-04-08T00:54:01;99036.25;;;7.06;68.63
12215;BME280;6170;42.206;24.142;2023-04-08T00:56:29;99038.34;;;6.88;68.93
12215;BME280;6170;42.206;24.142;2023-04-08T00:58:58;99074.78;;;7.34;67.94
12215;BME280;6170;42.206;24.142;2023-04-08T01:01:32;99039.16;;;7.27;68.19
12215;BME280;6170;42.206;24.142;2023-04-08T01:04:10;99047.72;;;7.14;68.42
12215;BME280;6170;42.206;24.142;2023-04-08T01:06:41;99081.59;;;7.37;68.58
12215;BME280;6170;42.206;24.142;2023-04-08T01:09:12;99076.59;;;7.64;67.99
12215;BME280;6170;42.206;24.142;2023-04-08T01:11:42;99088.75;;;7.67;68.90
12215;BME280;6170;42.206;24.142;2023-04-08T01:14:11;99049.25;;;7.62;67.89
12215;BME280;6170;42.206;24.142;2023-04-08T01:16:41;99054.59;;;7.62;68.16
12215;BME280;6170;42.206;24.142;2023-04-08T01:19:18;99056.09;;;7.65;68.28
12215;BME280;6170;42.206;24.142;2023-04-08T01:21:49;99047.19;;;7.50;68.85
12215;BME280;6170;42.206;24.142;2023-04-08T01:24:21;99056.50;;;7.23;69.38
12215;BME280;6170;42.206;24.142;2023-04-08T01:26:52;99053.47;;;7.26;68.98
12215;BME280;6170;42.206;24.142;2023-04-08T01:29:19;99051.78;;;7.02;69.55
12215;BME280;6170;42.206;24.142;2023-04-08T01:31:47;99058.84;;;7.18;69.06
12215;BME280;6170;42.206;24.142;2023-04-08T01:34:17;99052.41;;;7.04;70.13
12215;BME280;6170;42.206;24.142;2023-04-08T01:36:46;99061.09;;;7.37;68.88
12215;BME280;6170;42.206;24.142;2023-04-08T01:39:14;99096.53;;;7.46;69.06
12215;BME280;6170;42.206;24.142;2023-04-08T01:41:43;99060.09;;;7.07;69.44
12215;BME280;6170;42.206;24.142;2023-04-08T01:44:13;99067.59;;;6.96;69.76
12215;BME280;6170;42.206;24.142;2023-04-08T01:46:42;99096.97;;;6.80;70.80
12215;BME280;6170;42.206;24.142;2023-04-08T01:49:10;99055.53;;;6.77;69.89
12215;BME280;6170;42.206;24.142;2023-04-08T01:51:38;99101.19;;;7.05;70.37
12215;BME280;6170;42.206;24.142;2023-04-08T01:54:05;99099.84;;;7.09;70.43
12215;BME280;6170;42.206;24.142;2023-04-08T01:56:35;99064.91;;;7.04;70.16
12215;BME280;6170;42.206;24.142;2023-04-08T01:59:06;99086.09;;;6.97;70.01
12215;BME280;6170;42.206;24.142;2023-04-08T02:01:37;99082.66;;;6.81;70.45
12215;BME280;6170;42.206;24.142;2023-04-08T02:04:06;99106.91;;;6.94;70.73
12215;BME280;6170;42.206;24.142;2023-04-08T02:06:33;99078.25;;;6.96;69.75
12215;BME280;6170;42.206;24.142;2023-04-08T02:09:01;99081.03;;;6.63;70.46
12215;BME280;6170;42.206;24.142;2023-04-08T02:11:29;99082.38;;;6.59;70.54
12215;BME280;6170;42.206;24.142;2023-04-08T02:13:56;99118.69;;;6.99;70.26
12215;BME280;6170;42.206;24.142;2023-04-08T02:16:29;99086.44;;;6.94;70.01
12215;BME280;6170;42.206;24.142;2023-04-08T02:18:59;99127.63;;;6.59;71.63
12215;BME280;6170;42.206;24.142;2023-04-08T02:21:35;99124.41;;;6.88;70.70
12215;BME280;6170;42.206;24.142;2023-04-08T02:24:07;99095.00;;;6.57;71.05
12215;BME280;6170;42.206;24.142;2023-04-08T02:26:36;99134.44;;;6.70;70.87
12215;BME280;6170;42.206;24.142;2023-04-08T02:29:05;99098.03;;;6.54;70.87
12215;BME280;6170;42.206;24.142;2023-04-08T02:31:34;99132.56;;;6.95;70.59
12215;BME280;6170;42.206;24.142;2023-04-08T02:34:04;99133.75;;;6.76;70.95
12215;BME280;6170;42.206;24.142;2023-04-08T02:36:33;99099.66;;;6.71;69.91
12215;BME280;6170;42.206;24.142;2023-04-08T02:39:00;99131.75;;;6.70;70.68
12215;BME280;6170;42.206;24.142;2023-04-08T02:41:28;99093.47;;;6.79;69.38
12215;BME280;6170;42.206;24.142;2023-04-08T02:43:55;99097.63;;;6.73;69.79
12215;BME280;6170;42.206;24.142;2023-04-08T02:46:22;99096.53;;;6.44;70.71
12215;BME280;6170;42.206;24.142;2023-04-08T02:48:50;99096.69;;;6.50;70.67
12215;BME280;6170;42.206;24.142;2023-04-08T02:51:18;99093.47;;;6.79;69.90
12215;BME280;6170;42.206;24.142;2023-04-08T02:53:46;99131.25;;;6.83;70.77
12215;BME280;6170;42.206;24.142;2023-04-08T02:56:13;99095.03;;;7.04;69.72
12215;BME280;6170;42.206;24.142;2023-04-08T02:58:40;99098.06;;;7.01;70.17
12215;BME280;6170;42.206;24.142;2023-04-08T03:01:07;99095.69;;;7.14;69.77
12215;BME280;6170;42.206;24.142;2023-04-08T03:03:34;99122.31;;;7.53;69.22
12215;BME280;6170;42.206;24.142;2023-04-08T03:06:01;99102.16;;;7.51;68.70
12215;BME280;6170;42.206;24.142;2023-04-08T03:08:30;99083.63;;;7.27;69.38
12215;BME280;6170;42.206;24.142;2023-04-08T03:10:58;99143.69;;;7.45;69.53
12215;BME280;6170;42.206;24.142;2023-04-08T03:13:25;99112.16;;;7.18;69.94
12215;BME280;6170;42.206;24.142;2023-04-08T03:15:52;99102.34;;;7.49;69.51
12215;BME280;6170;42.206;24.142;2023-04-08T03:18:19;99109.34;;;7.50;68.85
12215;BME280;6170;42.206;24.142;2023-04-08T03:20:46;99141.69;;;7.47;70.10
12215;BME280;6170;42.206;24.142;2023-04-08T03:23:13;99152.63;;;7.52;69.27
12215;BME280;6170;42.206;24.142;2023-04-08T03:25:41;99105.47;;;7.22;69.64
12215;BME280;6170;42.206;24.142;2023-04-08T03:28:08;99123.78;;;7.25;69.95
12215;BME280;6170;42.206;24.142;2023-04-08T03:30:35;99121.97;;;7.26;69.91
12215;BME280;6170;42.206;24.142;2023-04-08T03:33:02;99162.81;;;7.49;69.97
12215;BME280;6170;42.206;24.142;2023-04-08T03:35:32;99128.72;;;7.36;69.98
12215;BME280;6170;42.206;24.142;2023-04-08T03:37:59;99167.28;;;7.64;69.65
12215;BME280;6170;42.206;24.142;2023-04-08T03:40:26;99137.44;;;7.22;70.65
12215;BME280;6170;42.206;24.142;2023-04-08T03:42:54;99131.44;;;7.28;70.33
12215;BME280;6170;42.206;24.142;2023-04-08T03:45:22;99130.16;;;7.55;69.89
12215;BME280;6170;42.206;24.142;2023-04-08T03:47:49;99132.28;;;7.59;69.93
12215;BME280;6170;42.206;24.142;2023-04-08T03:50:16;99132.78;;;7.63;69.55
12215;BME280;6170;42.206;24.142;2023-04-08T03:52:43;99173.50;;;7.49;71.21
12215;BME280;6170;42.206;24.142;2023-04-08T03:55:10;99137.34;;;7.46;70.64
12215;BME280;6170;42.206;24.142;2023-04-08T03:57:37;99134.28;;;7.57;70.71
12215;BME280;6170;42.206;24.142;2023-04-08T04:00:06;99130.94;;;7.63;70.81
12215;BME280;6170;42.206;24.142;2023-04-08T04:02:34;99166.88;;;7.76;71.11
12215;BME280;6170;42.206;24.142;2023-04-08T04:05:01;99132.66;;;7.56;71.55
12215;BME280;6170;42.206;24.142;2023-04-08T04:07:27;99139.72;;;7.41;72.36
12215;BME280;6170;42.206;24.142;2023-04-08T04:09:55;99134.66;;;7.54;72.13
12215;BME280;6170;42.206;24.142;2023-04-08T04:12:22;99124.63;;;7.26;71.97
12215;BME280;6170;42.206;24.142;2023-04-08T04:14:49;99185.47;;;7.61;73.37
12215;BME280;6170;42.206;24.142;2023-04-08T04:17:17;99148.63;;;7.26;73.45
12215;BME280;6170;42.206;24.142;2023-04-08T04:19:45;99156.09;;;7.30;74.25
12215;BME280;6170;42.206;24.142;2023-04-08T04:22:12;99163.03;;;7.39;73.39
12215;BME280;6170;42.206;24.142;2023-04-08T04:24:39;99151.84;;;7.44;74.05
12215;BME280;6170;42.206;24.142;2023-04-08T04:27:06;99161.72;;;7.35;73.60
12215;BME280;6170;42.206;24.142;2023-04-08T04:29:33;99164.66;;;7.48;73.52
12215;BME280;6170;42.206;24.142;2023-04-08T04:32:00;99170.81;;;7.49;73.86
12215;BME280;6170;42.206;24.142;2023-04-08T04:34:29;99164.72;;;7.32;74.23
12215;BME280;6170;42.206;24.142;2023-04-08T04:36:56;99161.97;;;7.56;74.11
12215;BME280;6170;42.206;24.142;2023-04-08T04:39:24;99167.78;;;7.60;73.95
12215;BME280;6170;42.206;24.142;2023-04-08T04:41:51;99203.72;;;7.72;74.43
12215;BME280;6170;42.206;24.142;2023-04-08T04:44:18;99175.53;;;7.78;73.40
12215;BME280;6170;42.206;24.142;2023-04-08T04:46:45;99178.41;;;7.68;73.56
12215;BME280;6170;42.206;24.142;2023-04-08T04:49:15;99176.63;;;7.60;74.01
12215;BME280;6170;42.206;24.142;2023-04-08T04:51:44;99174.16;;;7.51;75.63
12215;BME280;6170;42.206;24.142;2023-04-08T04:54:11;99182.69;;;7.46;74.83
12215;BME280;6170;42.206;24.142;2023-04-08T04:56:38;99193.78;;;7.58;75.02
12215;BME280;6170;42.206;24.142;2023-04-08T04:59:05;99174.31;;;7.49;74.71
12215;BME280;6170;42.206;24.142;2023-04-08T05:01:33;99215.97;;;7.89;74.50
12215;BME280;6170;42.206;24.142;2023-04-08T05:04:00;99179.88;;;7.79;74.39
12215;BME280;6170;42.206;24.142;2023-04-08T05:06:27;99187.00;;;7.47;75.17
12215;BME280;6170;42.206;24.142;2023-04-08T05:08:57;99202.69;;;7.81;74.69
12215;BME280;6170;42.206;24.142;2023-04-08T05:11:24;99184.63;;;7.60;75.51
12215;BME280;6170;42.206;24.142;2023-04-08T05:13:51;99189.13;;;7.91;74.90
12215;BME280;6170;42.206;24.142;2023-04-08T05:16:18;99177.66;;;8.13;74.23
12215;BME280;6170;42.206;24.142;2023-04-08T05:18:45;99205.88;;;8.38;74.61
12215;BME280;6170;42.206;24.142;2023-04-08T05:21:13;99221.22;;;8.59;74.06
12215;BME280;6170;42.206;24.142;2023-04-08T05:23:40;99186.53;;;8.28;73.63
12215;BME280;6170;42.206;24.142;2023-04-08T05:26:09;99192.75;;;8.51;72.93
12215;BME280;6170;42.206;24.142;2023-04-08T05:28:36;99184.97;;;8.65;73.22
12215;BME280;6170;42.206;24.142;2023-04-08T05:31:03;99225.47;;;8.53;73.83
12215;BME280;6170;42.206;24.142;2023-04-08T05:33:30;99195.56;;;8.35;74.51
12215;BME280;6170;42.206;24.142;2023-04-08T05:35:58;99193.06;;;8.56;73.55
12215;BME280;6170;42.206;24.142;2023-04-08T05:38:25;99196.41;;;8.73;74.02
12215;BME280;6170;42.206;24.142;2023-04-08T05:40:52;99197.38;;;8.57;74.82
12215;BME280;6170;42.206;24.142;2023-04-08T05:43:20;99228.47;;;8.73;74.53
12215;BME280;6170;42.206;24.142;2023-04-08T05:45:48;99198.25;;;8.27;75.40
12215;BME280;6170;42.206;24.142;2023-04-08T05:48:15;99195.19;;;8.38;75.31
12215;BME280;6170;42.206;24.142;2023-04-08T05:50:42;99196.56;;;8.34;75.74
12215;BME280;6170;42.206;24.142;2023-04-08T05:53:09;99200.59;;;8.30;73.37
12215;BME280;6170;42.206;24.142;2023-04-08T05:55:36;99198.25;;;8.27;73.46
12215;BME280;6170;42.206;24.142;2023-04-08T05:58:04;99188.31;;;8.67;75.11
12215;BME280;6170;42.206;24.142;2023-04-08T06:00:32;99191.31;;;8.64;74.42
12215;BME280;6170;42.206;24.142;2023-04-08T06:03:00;99227.09;;;8.54;73.69
12215;BME280;6170;42.206;24.142;2023-04-08T06:05:27;99185.06;;;8.03;75.12
12215;BME280;6170;42.206;24.142;2023-04-08T06:07:54;99199.06;;;8.28;73.11
12215;BME280;6170;42.206;24.142;2023-04-08T06:10:21;99188.75;;;8.25;73.63
12215;BME280;6170;42.206;24.142;2023-04-08T06:12:48;99204.56;;;8.34;73.68
12215;BME280;6170;42.206;24.142;2023-04-08T06:15:16;99185.56;;;8.29;73.63
12215;BME280;6170;42.206;24.142;2023-04-08T06:17:44;99186.25;;;8.54;73.57
12215;BME280;6170;42.206;24.142;2023-04-08T06:20:11;99221.22;;;8.82;72.58
12215;BME280;6170;42.206;24.142;2023-04-08T06:22:39;99213.13;;;8.90;73.54
12215;BME280;6170;42.206;24.142;2023-04-08T06:25:06;99185.63;;;9.33;72.38
12215;BME280;6170;42.206;24.142;2023-04-08T06:27:34;99221.22;;;9.48;71.95
12215;BME280;6170;42.206;24.142;2023-04-08T06:30:01;99182.72;;;9.79;72.21
12215;BME280;6170;42.206;24.142;2023-04-08T06:32:28;99187.91;;;9.66;71.87
12215;BME280;6170;42.206;24.142;2023-04-08T06:34:57;99188.34;;;9.84;71.76
12215;BME280;6170;42.206;24.142;2023-04-08T06:37:24;99189.16;;;10.35;69.88
12215;BME280;6170;42.206;24.142;2023-04-08T06:39:51;99191.19;;;10.33;69.84
12215;BME280;6170;42.206;24.142;2023-04-08T06:42:18;99189.56;;;11.09;70.85
12215;BME280;6170;42.206;24.142;2023-04-08T06:44:46;99180.13;;;10.64;68.77
12215;BME280;6170;42.206;24.142;2023-04-08T06:47:13;99213.19;;;11.54;70.22
12215;BME280;6170;42.206;24.142;2023-04-08T06:49:41;99178.75;;;10.96;66.99
12215;BME280;6170;42.206;24.142;2023-04-08T06:52:10;99178.47;;;10.63;65.69
12215;BME280;6170;42.206;24.142;2023-04-08T06:54:37;99213.09;;;10.86;68.36
12215;BME280;6170;42.206;24.142;2023-04-08T06:57:04;99182.59;;;10.87;67.63
12215;BME280;6170;42.206;24.142;2023-04-08T06:59:31;99183.34;;;10.53;68.02
12215;BME280;6170;42.206;24.142;2023-04-08T07:01:58;99181.41;;;10.68;67.50
12215;BME280;6170;42.206;24.142;2023-04-08T07:04:26;99180.28;;;9.99;70.02
12215;BME280;6170;42.206;24.142;2023-04-08T07:06:53;99210.75;;;10.97;68.85
12215;BME280;6170;42.206;24.142;2023-04-08T07:09:22;99211.03;;;11.43;68.77
12215;BME280;6170;42.206;24.142;2023-04-08T07:11:49;99178.69;;;11.17;65.35
12215;BME280;6170;42.206;24.142;2023-04-08T07:14:16;99178.31;;;11.61;66.55
12215;BME280;6170;42.206;24.142;2023-04-08T07:16:44;99181.41;;;11.58;67.50
12215;BME280;6170;42.206;24.142;2023-04-08T07:19:11;99170.03;;;11.90;66.29
12215;BME280;6170;42.206;24.142;2023-04-08T07:21:38;99183.31;;;12.11;67.23
12215;BME280;6170;42.206;24.142;2023-04-08T07:24:06;99182.25;;;11.65;70.63
12215;BME280;6170;42.206;24.142;2023-04-08T07:26:34;99191.72;;;11.61;68.69
12215;BME280;6170;42.206;24.142;2023-04-08T07:29:02;99222.47;;;11.93;69.59
12215;BME280;6170;42.206;24.142;2023-04-08T07:31:29;99192.69;;;11.81;67.97
12215;BME280;6170;42.206;24.142;2023-04-08T07:33:56;99193.00;;;11.65;66.56
12215;BME280;6170;42.206;24.142;2023-04-08T07:36:23;99191.47;;;11.84;69.37
12215;BME280;6170;42.206;24.142;2023-04-08T07:38:51;99203.50;;;12.01;66.12
12215;BME280;6170;42.206;24.142;2023-04-08T07:41:18;99220.50;;;12.14;67.67
12215;BME280;6170;42.206;24.142;2023-04-08T07:43:47;99199.66;;;12.23;70.27
12215;BME280;6170;42.206;24.142;2023-04-08T07:46:14;99227.75;;;11.73;68.55
12215;BME280;6170;42.206;24.142;2023-04-08T07:48:41;99200.88;;;11.32;67.08
12215;BME280;6170;42.206;24.142;2023-04-08T07:51:09;99200.34;;;10.88;67.54
12215;BME280;6170;42.206;24.142;2023-04-08T07:53:37;99196.34;;;11.33;68.57
12215;BME280;6170;42.206;24.142;2023-04-08T07:56:10;99200.66;;;11.68;68.09
12215;BME280;6170;42.206;24.142;2023-04-08T07:58:38;99192.75;;;11.60;69.05
12215;BME280;6170;42.206;24.142;2023-04-08T08:01:15;99200.19;;;11.58;69.59
12215;BME280;6170;42.206;24.142;2023-04-08T08:03:44;99195.88;;;10.73;70.96
12215;BME280;6170;42.206;24.142;2023-04-08T08:06:12;99212.63;;;11.03;74.22
12215;BME280;6170;42.206;24.142;2023-04-08T08:08:39;99201.22;;;10.95;73.26
12215;BME280;6170;42.206;24.142;2023-04-08T08:11:06;99232.50;;;11.15;71.61
12215;BME280;6170;42.206;24.142;2023-04-08T08:13:34;99208.91;;;11.32;70.59
12215;BME280;6170;42.206;24.142;2023-04-08T08:16:01;99208.25;;;11.58;70.93
12215;BME280;6170;42.206;24.142;2023-04-08T08:18:29;99207.81;;;11.54;70.06
12215;BME280;6170;42.206;24.142;2023-04-08T08:20:56;99207.16;;;11.52;71.47
12215;BME280;6170;42.206;24.142;2023-04-08T08:23:23;99212.06;;;11.42;71.54
12215;BME280;6170;42.206;24.142;2023-04-08T08:25:58;99201.56;;;11.82;69.91
12215;BME280;6170;42.206;24.142;2023-04-08T08:28:25;99207.44;;;11.64;67.28
12215;BME280;6170;42.206;24.142;2023-04-08T08:30:52;99212.72;;;11.79;66.82
12215;BME280;6170;42.206;24.142;2023-04-08T08:33:19;99208.03;;;12.00;65.69
12215;BME280;6170;42.206;24.142;2023-04-08T08:35:48;99207.06;;;12.08;65.58
12215;BME280;6170;42.206;24.142;2023-04-08T08:38:15;99215.22;;;12.47;64.36
12215;BME280;6170;42.206;24.142;2023-04-08T08:40:42;99243.41;;;13.43;62.89
12215;BME280;6170;42.206;24.142;2023-04-08T08:43:09;99208.19;;;13.52;66.19
12215;BME280;6170;42.206;24.142;2023-04-08T08:45:38;99201.78;;;14.04;63.65
12215;BME280;6170;42.206;24.142;2023-04-08T08:48:05;99227.16;;;14.41;58.76
12215;BME280;6170;42.206;24.142;2023-04-08T08:50:32;99193.91;;;14.09;59.20
12215;BME280;6170;42.206;24.142;2023-04-08T08:53:01;99198.38;;;13.77;60.00
12215;BME280;6170;42.206;24.142;2023-04-08T08:55:30;99195.78;;;13.37;60.29
12215;BME280;6170;42.206;24.142;2023-04-08T08:57:58;99204.28;;;13.28;62.56
12215;BME280;6170;42.206;24.142;2023-04-08T09:00:31;99198.50;;;13.95;64.66
12215;BME280;6170;42.206;24.142;2023-04-08T09:03:16;99226.00;;;13.46;62.61
12215;BME280;6170;42.206;24.142;2023-04-08T09:05:48;99208.84;;;12.68;64.97
12215;BME280;6170;42.206;24.142;2023-04-08T09:08:28;99229.69;;;12.46;63.34
12215;BME280;6170;42.206;24.142;2023-04-08T09:11:15;99194.97;;;12.51;64.30
12215;BME280;6170;42.206;24.142;2023-04-08T09:13:42;99191.91;;;12.74;66.51
12215;BME280;6170;42.206;24.142;2023-04-08T09:16:11;99199.00;;;13.72;62.96
12215;BME280;6170;42.206;24.142;2023-04-08T09:18:39;99192.47;;;13.48;62.54
12215;BME280;6170;42.206;24.142;2023-04-08T09:21:09;99185.25;;;12.77;65.55
12215;BME280;6170;42.206;24.142;2023-04-08T09:23:40;99191.47;;;13.03;65.59
12215;BME280;6170;42.206;24.142;2023-04-08T09:26:08;99188.97;;;12.76;62.47
12215;BME280;6170;42.206;24.142;2023-04-08T09:28:36;99214.97;;;12.29;63.31
12215;BME280;6170;42.206;24.142;2023-04-08T09:31:17;99187.09;;;12.37;66.06
12215;BME280;6170;42.206;24.142;2023-04-08T09:33:45;99194.38;;;11.95;64.28
12215;BME280;6170;42.206;24.142;2023-04-08T09:36:13;99190.41;;;12.45;64.14
12215;BME280;6170;42.206;24.142;2023-04-08T09:38:42;99193.72;;;12.47;63.59
12215;BME280;6170;42.206;24.142;2023-04-08T09:41:12;99184.00;;;12.59;62.00
12215;BME280;6170;42.206;24.142;2023-04-08T09:43:43;99213.16;;;13.61;62.67
12215;BME280;6170;42.206;24.142;2023-04-08T09:46:15;99183.09;;;13.64;62.51
12215;BME280;6170;42.206;24.142;2023-04-08T09:48:49;99185.09;;;13.88;61.89
12215;BME280;6170;42.206;24.142;2023-04-08T09:51:22;99207.19;;;14.48;61.07
12215;BME280;6170;42.206;24.142;2023-04-08T09:53:55;99206.78;;;14.07;62.23
12215;BME280;6170;42.206;24.142;2023-04-08T09:56:28;99184.44;;;14.31;61.81
12215;BME280;6170;42.206;24.142;2023-04-08T09:58:58;99181.97;;;14.36;62.53
12215;BME280;6170;42.206;24.142;2023-04-08T10:01:30;99176.47;;;13.67;59.63
12215;BME280;6170;42.206;24.142;2023-04-08T10:04:00;99194.78;;;13.32;62.58
12215;BME280;6170;42.206;24.142;2023-04-08T10:06:30;99177.78;;;13.44;62.67
12215;BME280;6170;42.206;24.142;2023-04-08T10:09:01;99193.16;;;14.33;62.75
12215;BME280;6170;42.206;24.142;2023-04-08T10:11:29;99173.31;;;13.76;62.99
12215;BME280;6170;42.206;24.142;2023-04-08T10:13:57;99167.63;;;14.42;64.16
12215;BME280;6170;42.206;24.142;2023-04-08T10:16:24;99168.75;;;14.84;60.93
12215;BME280;6170;42.206;24.142;2023-04-08T10:18:53;99165.56;;;14.94;62.30
12215;BME280;6170;42.206;24.142;2023-04-08T10:21:34;99168.41;;;14.05;59.83
12215;BME280;6170;42.206;24.142;2023-04-08T10:24:06;99172.66;;;14.63;60.96
12215;BME280;6170;42.206;24.142;2023-04-08T10:26:37;99179.38;;;14.79;60.79
12215;BME280;6170;42.206;24.142;2023-04-08T10:29:29;99166.59;;;15.60;62.49
12215;BME280;6170;42.206;24.142;2023-04-08T10:31:56;99159.41;;;15.29;60.13
12215;BME280;6170;42.206;24.142;2023-04-08T10:34:25;99152.31;;;14.61;60.62
12215;BME280;6170;42.206;24.142;2023-04-08T10:36:54;99148.91;;;13.71;60.98
12215;BME280;6170;42.206;24.142;2023-04-08T10:39:25;99183.13;;;14.09;62.14
12215;BME280;6170;42.206;24.142;2023-04-08T10:41:53;99149.38;;;14.94;66.12
12215;BME280;6170;42.206;24.142;2023-04-08T10:44:21;99138.56;;;14.94;58.37
12215;BME280;6170;42.206;24.142;2023-04-08T10:46:50;99141.91;;;14.39;59.62
12215;BME280;6170;42.206;24.142;2023-04-08T10:49:18;99141.22;;;14.13;58.84
12215;BME280;6170;42.206;24.142;2023-04-08T10:51:46;99169.22;;;14.50;60.59
12215;BME280;6170;42.206;24.142;2023-04-08T10:54:15;99139.78;;;14.98;61.89
12215;BME280;6170;42.206;24.142;2023-04-08T10:56:45;99164.22;;;15.03;60.24
12215;BME280;6170;42.206;24.142;2023-04-08T10:59:15;99129.88;;;13.66;60.03
12215;BME280;6170;42.206;24.142;2023-04-08T11:01:44;99140.53;;;13.35;60.54
12215;BME280;6170;42.206;24.142;2023-04-08T11:04:16;99127.34;;;13.14;61.79
12215;BME280;6170;42.206;24.142;2023-04-08T11:06:45;99163.53;;;13.31;62.37
12215;BME280;6170;42.206;24.142;2023-04-08T11:09:13;99139.59;;;13.67;62.34
12215;BME280;6170;42.206;24.142;2023-04-08T11:11:42;99132.47;;;14.17;60.16
12215;BME280;6170;42.206;24.142;2023-04-08T11:14:11;99122.16;;;14.08;60.00
12215;BME280;6170;42.206;24.142;2023-04-08T11:16:38;99122.72;;;14.23;57.34
12215;BME280;6170;42.206;24.142;2023-04-08T11:19:06;99129.16;;;14.53;57.11
12215;BME280;6170;42.206;24.142;2023-04-08T11:21:37;99127.06;;;14.80;61.18
12215;BME280;6170;42.206;24.142;2023-04-08T11:24:11;99145.91;;;15.29;57.60
12215;BME280;6170;42.206;24.142;2023-04-08T11:26:39;99122.72;;;15.40;58.60
12215;BME280;6170;42.206;24.142;2023-04-08T11:29:11;99125.47;;;14.97;56.40
12215;BME280;6170;42.206;24.142;2023-04-08T11:31:40;99107.78;;;14.52;58.28
12215;BME280;6170;42.206;24.142;2023-04-08T11:34:08;99135.66;;;14.70;57.57
12215;BME280;6170;42.206;24.142;2023-04-08T11:36:35;99115.09;;;14.51;59.83
12215;BME280;6170;42.206;24.142;2023-04-08T11:39:06;99139.19;;;15.14;57.77
12215;BME280;6170;42.206;24.142;2023-04-08T11:41:37;99110.22;;;14.84;57.08
12215;BME280;6170;42.206;24.142;2023-04-08T11:44:05;99098.72;;;14.71;56.74
12215;BME280;6170;42.206;24.142;2023-04-08T11:46:34;99104.47;;;14.25;56.85
12215;BME280;6170;42.206;24.142;2023-04-08T11:49:03;99088.16;;;14.13;58.99
12215;BME280;6170;42.206;24.142;2023-04-08T11:51:31;99085.53;;;14.07;56.93
12215;BME280;6170;42.206;24.142;2023-04-08T11:54:00;99084.59;;;14.51;56.02
12215;BME280;6170;42.206;24.142;2023-04-08T11:56:31;99116.63;;;15.45;58.02
12215;BME280;6170;42.206;24.142;2023-04-08T11:59:10;99078.19;;;14.70;59.98
12215;BME280;6170;42.206;24.142;2023-04-08T12:01:38;99067.63;;;14.44;58.22
12215;BME280;6170;42.206;24.142;2023-04-08T12:04:06;99111.66;;;14.62;58.36
12215;BME280;6170;42.206;24.142;2023-04-08T12:06:34;99078.72;;;13.98;58.21
12215;BME280;6170;42.206;24.142;2023-04-08T12:09:02;99086.69;;;14.49;59.85
12215;BME280;6170;42.206;24.142;2023-04-08T12:11:29;99071.31;;;13.93;59.77
12215;BME280;6170;42.206;24.142;2023-04-08T12:13:56;99071.53;;;14.16;59.05
12215;BME280;6170;42.206;24.142;2023-04-08T12:16:23;99099.81;;;14.38;60.07
12215;BME280;6170;42.206;24.142;2023-04-08T12:18:52;99101.88;;;14.68;58.98
12215;BME280;6170;42.206;24.142;2023-04-08T12:21:19;99059.19;;;14.83;58.92
12215;BME280;6170;42.206;24.142;2023-04-08T12:23:46;99091.94;;;15.05;58.20
12215;BME280;6170;42.206;24.142;2023-04-08T12:26:13;99073.59;;;15.50;57.24
12215;BME280;6170;42.206;24.142;2023-04-08T12:28:41;99066.31;;;15.14;56.04
12215;BME280;6170;42.206;24.142;2023-04-08T12:31:08;99078.75;;;14.97;56.72
12215;BME280;6170;42.206;24.142;2023-04-08T12:33:35;99081.16;;;15.05;57.93
12215;BME280;6170;42.206;24.142;2023-04-08T12:36:04;99050.28;;;15.55;55.33
12215;BME280;6170;42.206;24.142;2023-04-08T12:38:31;99080.81;;;15.19;56.97
12215;BME280;6170;42.206;24.142;2023-04-08T12:40:59;99074.72;;;15.06;57.32
12215;BME280;6170;42.206;24.142;2023-04-08T12:43:26;99077.28;;;15.37;59.16
12215;BME280;6170;42.206;24.142;2023-04-08T12:45:53;99044.53;;;15.52;57.62
12215;BME280;6170;42.206;24.142;2023-04-08T12:48:21;99048.19;;;15.57;57.83
12215;BME280;6170;42.206;24.142;2023-04-08T12:50:48;99036.38;;;15.70;55.69
12215;BME280;6170;42.206;24.142;2023-04-08T12:53:17;99035.28;;;15.23;54.37
12215;BME280;6170;42.206;24.142;2023-04-08T12:55:44;99028.75;;;14.76;55.69
12215;BME280;6170;42.206;24.142;2023-04-08T12:58:11;99045.66;;;14.47;56.65
12215;BME280;6170;42.206;24.142;2023-04-08T13:00:38;99016.66;;;14.42;57.75
12215;BME280;6170;42.206;24.142;2023-04-08T13:03:11;99013.84;;;13.99;58.45
12215;BME280;6170;42.206;24.142;2023-04-08T13:05:38;99040.03;;;13.85;58.63
12215;BME280;6170;42.206;24.142;2023-04-08T13:08:05;99004.00;;;14.61;58.40
12215;BME280;6170;42.206;24.142;2023-04-08T13:10:34;99032.59;;;15.05;55.91
12215;BME280;6170;42.206;24.142;2023-04-08T13:13:01;98996.97;;;14.60;57.87